Aviation Digital Data Service (ADDS)

Output produced by METARs form (0905 UTC 18 February 2019)
found at http://www.aviationweather.gov/metar/data/
 
METAR text: KPWM 180851Z VRB06KT 10SM BKN034 OVC060 M04/M12 A2998 RMK AO2 SLP153 T10441117 56019
Conditions at: KPWM (PORTLAND , ME, US) observed 0851 UTC 18 February 2019
Temperature: -4.4°C (24°F)
Dewpoint: -11.7°C (11°F) [RH = 57%]
Pressure (altimeter): 29.98 inches Hg (1015.3 mb)
[Sea-level pressure: 1015.3 mb]
Winds: variable direction winds at 7 MPH (6 knots; 3.1 m/s)
Visibility: 10 or more miles (16+ km)
Ceiling: 3400 feet AGL
Clouds: broken clouds at 3400 feet AGL
overcast cloud deck at 6000 feet AGL
Weather: no significant weather observed at this time

METAR text: KPWM 180751Z 08008KT 10SM OVC075 M04/M12 A3000 RMK AO2 SLP159 T10391117
Conditions at: KPWM (PORTLAND , ME, US) observed 0751 UTC 18 February 2019
Temperature: -3.9°C (25°F)
Dewpoint: -11.7°C (11°F) [RH = 55%]
Pressure (altimeter): 30.00 inches Hg (1016.0 mb)
[Sea-level pressure: 1015.9 mb]
Winds: from the E (80 degrees) at 9 MPH (8 knots; 4.1 m/s)
Visibility: 10 or more miles (16+ km)
Ceiling: 7500 feet AGL
Clouds: overcast cloud deck at 7500 feet AGL
Weather: no significant weather observed at this time

METAR text: KPWM 180651Z 09007KT 040V120 10SM BKN065 OVC085 M03/M11 A3002 RMK AO2 SLP166 T10331106
Conditions at: KPWM (PORTLAND , ME, US) observed 0651 UTC 18 February 2019
Temperature: -3.3°C (26°F)
Dewpoint: -10.6°C (13°F) [RH = 57%]
Pressure (altimeter): 30.02 inches Hg (1016.7 mb)
[Sea-level pressure: 1016.6 mb]
Winds: from the E (90 degrees) at 8 MPH (7 knots; 3.6 m/s)
Visibility: 10 or more miles (16+ km)
Ceiling: 6500 feet AGL
Clouds: broken clouds at 6500 feet AGL
overcast cloud deck at 8500 feet AGL
Weather: no significant weather observed at this time

METAR text: KPWM 180551Z 07007G15KT 020V130 10SM OVC100 M03/M08 A3004 RMK AO2 SLP173 T10281078 11022 21033 50002
Conditions at: KPWM (PORTLAND , ME, US) observed 0551 UTC 18 February 2019
Temperature: -2.8°C (27°F)
Dewpoint: -7.8°C (18°F) [RH = 68%]
Pressure (altimeter): 30.04 inches Hg (1017.4 mb)
[Sea-level pressure: 1017.3 mb]
Winds: from the ENE (70 degrees) at 8 MPH (7 knots; 3.6 m/s)
gusting to 17 MPH (15 knots; 7.7 m/s)
Visibility: 10 or more miles (16+ km)
Ceiling: 10000 feet AGL
Clouds: overcast cloud deck at 10000 feet AGL
Weather: no significant weather observed at this time

METAR text: KPWM 180451Z 11009G16KT 020V140 10SM SCT120 M03/M07 A3004 RMK AO2 SLP175 LAST T10331067 400001100
Conditions at: KPWM (PORTLAND , ME, US) observed 0451 UTC 18 February 2019
Temperature: -3.3°C (26°F)
Dewpoint: -6.7°C (20°F) [RH = 77%]
Pressure (altimeter): 30.04 inches Hg (1017.4 mb)
[Sea-level pressure: 1017.5 mb]
Winds: from the ESE (110 degrees) at 10 MPH (9 knots; 4.6 m/s)
gusting to 18 MPH (16 knots; 8.2 m/s)
Visibility: 10 or more miles (16+ km)
Ceiling: at least 12,000 feet AGL
Clouds: scattered clouds at 12000 feet AGL
Weather: no significant weather observed at this time

METAR text: KPWM 180351Z 23003KT 10SM OVC110 M03/M08 A3006 RMK AO2 SLP179 T10281078
Conditions at: KPWM (PORTLAND , ME, US) observed 0351 UTC 18 February 2019
Temperature: -2.8°C (27°F)
Dewpoint: -7.8°C (18°F) [RH = 68%]
Pressure (altimeter): 30.06 inches Hg (1018.0 mb)
[Sea-level pressure: 1017.9 mb]
Winds: from the SW (230 degrees) at 3 MPH (3 knots; 1.5 m/s)
Visibility: 10 or more miles (16+ km)
Ceiling: 11000 feet AGL
Clouds: overcast cloud deck at 11000 feet AGL
Weather: no significant weather observed at this time

METAR text: KPWM 180251Z 00000KT 10SM FEW120 M03/M07 A3003 RMK AO2 SLP171 T10331072 58007
Conditions at: KPWM (PORTLAND , ME, US) observed 0251 UTC 18 February 2019
Temperature: -3.3°C (26°F)
Dewpoint: -7.2°C (19°F) [RH = 74%]
Pressure (altimeter): 30.03 inches Hg (1017.0 mb)
[Sea-level pressure: 1017.1 mb]
Winds: calm
Visibility: 10 or more miles (16+ km)
Ceiling: at least 12,000 feet AGL
Clouds: few clouds at 12000 feet AGL
Weather: no significant weather observed at this time

METAR text: KPWM 180151Z 00000KT 10SM CLR M03/M08 A3006 RMK AO2 SLP181 T10281078
Conditions at: KPWM (PORTLAND , ME, US) observed 0151 UTC 18 February 2019
Temperature: -2.8°C (27°F)
Dewpoint: -7.8°C (18°F) [RH = 68%]
Pressure (altimeter): 30.06 inches Hg (1018.0 mb)
[Sea-level pressure: 1018.1 mb]
Winds: calm
Visibility: 10 or more miles (16+ km)
Ceiling: at least 12,000 feet AGL
Clouds: sky clear below 12,000 feet AGL
Weather: no significant weather observed at this time

METAR text: KPWM 180051Z 00000KT 10SM CLR M03/M08 A3007 RMK AO2 SLP184 T10281078
Conditions at: KPWM (PORTLAND , ME, US) observed 0051 UTC 18 February 2019
Temperature: -2.8°C (27°F)
Dewpoint: -7.8°C (18°F) [RH = 68%]
Pressure (altimeter): 30.07 inches Hg (1018.4 mb)
[Sea-level pressure: 1018.4 mb]
Winds: calm
Visibility: 10 or more miles (16+ km)
Ceiling: at least 12,000 feet AGL
Clouds: sky clear below 12,000 feet AGL
Weather: no significant weather observed at this time

METAR text: KPWM 172351Z 17003KT 10SM CLR M03/M08 A3006 RMK AO2 SLP179 T10281083 10000 21028 56010
Conditions at: KPWM (PORTLAND , ME, US) observed 2351 UTC 17 February 2019
Temperature: -2.8°C (27°F)
Dewpoint: -8.3°C (17°F) [RH = 66%]
Pressure (altimeter): 30.06 inches Hg (1018.0 mb)
[Sea-level pressure: 1017.9 mb]
Winds: from the S (170 degrees) at 3 MPH (3 knots; 1.5 m/s)
Visibility: 10 or more miles (16+ km)
Ceiling: at least 12,000 feet AGL
Clouds: sky clear below 12,000 feet AGL
Weather: no significant weather observed at this time

METAR text: KPWM 172251Z 19006KT 10SM BKN150 M02/M08 A3007 RMK AO2 SLP184 T10221078
Conditions at: KPWM (PORTLAND , ME, US) observed 2251 UTC 17 February 2019
Temperature: -2.2°C (28°F)
Dewpoint: -7.8°C (18°F) [RH = 65%]
Pressure (altimeter): 30.07 inches Hg (1018.4 mb)
[Sea-level pressure: 1018.4 mb]
Winds: from the S (190 degrees) at 7 MPH (6 knots; 3.1 m/s)
Visibility: 10 or more miles (16+ km)
Ceiling: 15000 feet AGL
Clouds: broken clouds at 15000 feet AGL
Weather: no significant weather observed at this time

METAR text: KPWM 172151Z 19007KT 10SM BKN150 M02/M08 A3006 RMK AO2 SLP180 T10221083
Conditions at: KPWM (PORTLAND , ME, US) observed 2151 UTC 17 February 2019
Temperature: -2.2°C (28°F)
Dewpoint: -8.3°C (17°F) [RH = 63%]
Pressure (altimeter): 30.06 inches Hg (1018.0 mb)
[Sea-level pressure: 1018.0 mb]
Winds: from the S (190 degrees) at 8 MPH (7 knots; 3.6 m/s)
Visibility: 10 or more miles (16+ km)
Ceiling: 15000 feet AGL
Clouds: broken clouds at 15000 feet AGL
Weather: no significant weather observed at this time

METAR text: KPWM 172051Z 19009G16KT 10SM FEW200 M01/M09 A3009 RMK AO2 SLP189 T10111094 55000
Conditions at: KPWM (PORTLAND , ME, US) observed 2051 UTC 17 February 2019
Temperature: -1.1°C (30°F)
Dewpoint: -9.4°C (15°F) [RH = 53%]
Pressure (altimeter): 30.09 inches Hg (1019.0 mb)
[Sea-level pressure: 1018.9 mb]
Winds: from the S (190 degrees) at 10 MPH (9 knots; 4.6 m/s)
gusting to 18 MPH (16 knots; 8.2 m/s)
Visibility: 10 or more miles (16+ km)
Ceiling: at least 12,000 feet AGL
Clouds: few clouds at 20000 feet AGL
Weather: no significant weather observed at this time

METAR text: KPWM 171951Z VRB06KT 10SM CLR 00/M16 A3008 RMK AO2 SLP185 T00001156
Conditions at: KPWM (PORTLAND , ME, US) observed 1951 UTC 17 February 2019
Temperature: 0.0°C (32°F)
Dewpoint: -15.6°C ( 4°F) [RH = 30%]
Pressure (altimeter): 30.08 inches Hg (1018.7 mb)
[Sea-level pressure: 1018.5 mb]
Winds: variable direction winds at 7 MPH (6 knots; 3.1 m/s)
Visibility: 10 or more miles (16+ km)
Ceiling: at least 12,000 feet AGL
Clouds: sky clear below 12,000 feet AGL
Weather: no significant weather observed at this time

METAR text: KPWM 171851Z 00000KT 10SM CLR M01/M17 A3006 RMK AO2 SLP181 T10061167
Conditions at: KPWM (PORTLAND , ME, US) observed 1851 UTC 17 February 2019
Temperature: -0.6°C (31°F)
Dewpoint: -16.7°C ( 2°F) [RH = 28%]
Pressure (altimeter): 30.06 inches Hg (1018.0 mb)
[Sea-level pressure: 1018.1 mb]
Winds: calm
Visibility: 10 or more miles (16+ km)
Ceiling: at least 12,000 feet AGL
Clouds: sky clear below 12,000 feet AGL
Weather: no significant weather observed at this time

METAR text: KPWM 171751Z VRB05KT 10SM FEW250 M01/M16 A3009 RMK AO2 SLP189 T10111161 11011 21094 58017
Conditions at: KPWM (PORTLAND , ME, US) observed 1751 UTC 17 February 2019
Temperature: -1.1°C (30°F)
Dewpoint: -16.1°C ( 3°F) [RH = 31%]
Pressure (altimeter): 30.09 inches Hg (1019.0 mb)
[Sea-level pressure: 1018.9 mb]
Winds: variable direction winds at 6 MPH (5 knots; 2.6 m/s)
Visibility: 10 or more miles (16+ km)
Ceiling: at least 12,000 feet AGL
Clouds: few clouds at 25000 feet AGL
Weather: no significant weather observed at this time

METAR text: KPWM 171651Z VRB04KT 10SM FEW250 M02/M14 A3011 RMK AO2 SLP198 T10221139
Conditions at: KPWM (PORTLAND , ME, US) observed 1651 UTC 17 February 2019
Temperature: -2.2°C (28°F)
Dewpoint: -13.9°C ( 7°F) [RH = 40%]
Pressure (altimeter): 30.11 inches Hg (1019.7 mb)
[Sea-level pressure: 1019.8 mb]
Winds: variable direction winds at 5 MPH (4 knots; 2.1 m/s)
Visibility: 10 or more miles (16+ km)
Ceiling: at least 12,000 feet AGL
Clouds: few clouds at 25000 feet AGL
Weather: no significant weather observed at this time

METAR text: KPWM 171551Z VRB05KT 10SM FEW250 M03/M15 A3013 RMK AO2 SLP202 T10331150
Conditions at: KPWM (PORTLAND , ME, US) observed 1551 UTC 17 February 2019
Temperature: -3.3°C (26°F)
Dewpoint: -15.0°C ( 5°F) [RH = 40%]
Pressure (altimeter): 30.13 inches Hg (1020.4 mb)
[Sea-level pressure: 1020.2 mb]
Winds: variable direction winds at 6 MPH (5 knots; 2.6 m/s)
Visibility: 10 or more miles (16+ km)
Ceiling: at least 12,000 feet AGL
Clouds: few clouds at 25000 feet AGL
Weather: no significant weather observed at this time

METAR text: KPWM 171451Z 30007KT 10SM FEW250 M04/M14 A3014 RMK AO2 SLP206 T10441144 51020
Conditions at: KPWM (PORTLAND , ME, US) observed 1451 UTC 17 February 2019
Temperature: -4.4°C (24°F)
Dewpoint: -14.4°C ( 6°F) [RH = 46%]
Pressure (altimeter): 30.14 inches Hg (1020.7 mb)
[Sea-level pressure: 1020.6 mb]
Winds: from the WNW (300 degrees) at 8 MPH (7 knots; 3.6 m/s)
Visibility: 10 or more miles (16+ km)
Ceiling: at least 12,000 feet AGL
Clouds: few clouds at 25000 feet AGL
Weather: no significant weather observed at this time

METAR text: KPWM 171351Z 35005KT 10SM FEW250 M06/M14 A3012 RMK AO2 SLP200 T10561144
Conditions at: KPWM (PORTLAND , ME, US) observed 1351 UTC 17 February 2019
Temperature: -5.6°C (22°F)
Dewpoint: -14.4°C ( 6°F) [RH = 50%]
Pressure (altimeter): 30.12 inches Hg (1020.1 mb)
[Sea-level pressure: 1020.0 mb]
Winds: from the N (350 degrees) at 6 MPH (5 knots; 2.6 m/s)
Visibility: 10 or more miles (16+ km)
Ceiling: at least 12,000 feet AGL
Clouds: few clouds at 25000 feet AGL
Weather: no significant weather observed at this time

METAR text: KPWM 171251Z VRB06KT 10SM CLR M07/M13 A3010 RMK AO2 SLP193 T10721133
Conditions at: KPWM (PORTLAND , ME, US) observed 1251 UTC 17 February 2019
Temperature: -7.2°C (19°F)
Dewpoint: -13.3°C ( 8°F) [RH = 62%]
Pressure (altimeter): 30.10 inches Hg (1019.4 mb)
[Sea-level pressure: 1019.3 mb]
Winds: variable direction winds at 7 MPH (6 knots; 3.1 m/s)
Visibility: 10 or more miles (16+ km)
Ceiling: at least 12,000 feet AGL
Clouds: sky clear below 12,000 feet AGL
Weather: no significant weather observed at this time

METAR text: KPWM 171151Z VRB03KT 10SM CLR M09/M13 A3008 RMK AO2 SLP186 T10891128 11056 21100 51024
Conditions at: KPWM (PORTLAND , ME, US) observed 1151 UTC 17 February 2019
Temperature: -8.9°C (16°F)
Dewpoint: -12.8°C ( 9°F) [RH = 73%]
Pressure (altimeter): 30.08 inches Hg (1018.7 mb)
[Sea-level pressure: 1018.6 mb]
Winds: variable direction winds at 3 MPH (3 knots; 1.5 m/s)
Visibility: 10 or more miles (16+ km)
Ceiling: at least 12,000 feet AGL
Clouds: sky clear below 12,000 feet AGL
Weather: no significant weather observed at this time

METAR text: KPWM 171051Z 30005KT 10SM CLR M09/M13 A3005 RMK AO2 SLP177 T10941128
Conditions at: KPWM (PORTLAND , ME, US) observed 1051 UTC 17 February 2019
Temperature: -9.4°C (15°F)
Dewpoint: -12.8°C ( 9°F) [RH = 76%]
Pressure (altimeter): 30.05 inches Hg (1017.7 mb)
[Sea-level pressure: 1017.7 mb]
Winds: from the WNW (300 degrees) at 6 MPH (5 knots; 2.6 m/s)
Visibility: 10 or more miles (16+ km)
Ceiling: at least 12,000 feet AGL
Clouds: sky clear below 12,000 feet AGL
Weather: no significant weather observed at this time

METAR text: KPWM 170951Z VRB04KT 10SM FEW250 M08/M12 A3004 RMK AO2 SLP173 T10831122
Conditions at: KPWM (PORTLAND , ME, US) observed 0951 UTC 17 February 2019
Temperature: -8.3°C (17°F)
Dewpoint: -12.2°C (10°F) [RH = 73%]
Pressure (altimeter): 30.04 inches Hg (1017.4 mb)
[Sea-level pressure: 1017.3 mb]
Winds: variable direction winds at 5 MPH (4 knots; 2.1 m/s)
Visibility: 10 or more miles (16+ km)
Ceiling: at least 12,000 feet AGL
Clouds: few clouds at 25000 feet AGL
Weather: no significant weather observed at this time

METAR text: KPWM 170851Z AUTO VRB03KT 10SM CLR M07/M12 A3001 RMK AO2 SLP162 T10721117 50005
Conditions at: KPWM (PORTLAND , ME, US) observed 0851 UTC 17 February 2019
Temperature: -7.2°C (19°F)
Dewpoint: -11.7°C (11°F) [RH = 70%]
Pressure (altimeter): 30.01 inches Hg (1016.3 mb)
[Sea-level pressure: 1016.2 mb]
Winds: variable direction winds at 3 MPH (3 knots; 1.5 m/s)
Visibility: 10 or more miles (16+ km)
Ceiling: at least 12,000 feet AGL
Clouds: sky clear below 12,000 feet AGL
Weather: automated observation with no human augmentation;
there may or may not be significant weather present at this time

METAR text: KPWM 170751Z AUTO 18005KT 10SM CLR M07/M12 A3001 RMK AO2 SLP162 T10671117
Conditions at: KPWM (PORTLAND , ME, US) observed 0751 UTC 17 February 2019
Temperature: -6.7°C (20°F)
Dewpoint: -11.7°C (11°F) [RH = 68%]
Pressure (altimeter): 30.01 inches Hg (1016.3 mb)
[Sea-level pressure: 1016.2 mb]
Winds: from the S (180 degrees) at 6 MPH (5 knots; 2.6 m/s)
Visibility: 10 or more miles (16+ km)
Ceiling: at least 12,000 feet AGL
Clouds: sky clear below 12,000 feet AGL
Weather: automated observation with no human augmentation;
there may or may not be significant weather present at this time

METAR text: KPWM 170651Z AUTO 32006KT 10SM CLR M06/M12 A3000 RMK AO2 SLP158 T10611117
Conditions at: KPWM (PORTLAND , ME, US) observed 0651 UTC 17 February 2019
Temperature: -6.1°C (21°F)
Dewpoint: -11.7°C (11°F) [RH = 64%]
Pressure (altimeter): 30.00 inches Hg (1016.0 mb)
[Sea-level pressure: 1015.8 mb]
Winds: from the NW (320 degrees) at 7 MPH (6 knots; 3.1 m/s)
Visibility: 10 or more miles (16+ km)
Ceiling: at least 12,000 feet AGL
Clouds: sky clear below 12,000 feet AGL
Weather: automated observation with no human augmentation;
there may or may not be significant weather present at this time

METAR text: KPWM 170551Z AUTO 32008KT 10SM CLR M06/M12 A2999 RMK AO2 SLP157 T10561117 10006 21061 53013
Conditions at: KPWM (PORTLAND , ME, US) observed 0551 UTC 17 February 2019
Temperature: -5.6°C (22°F)
Dewpoint: -11.7°C (11°F) [RH = 62%]
Pressure (altimeter): 29.99 inches Hg (1015.7 mb)
[Sea-level pressure: 1015.7 mb]
Winds: from the NW (320 degrees) at 9 MPH (8 knots; 4.1 m/s)
Visibility: 10 or more miles (16+ km)
Ceiling: at least 12,000 feet AGL
Clouds: sky clear below 12,000 feet AGL
Weather: automated observation with no human augmentation;
there may or may not be significant weather present at this time

METAR text: KPWM 170451Z 36005KT 10SM CLR M05/M12 A2998 RMK AO2 SLP152 LAST T10501122 400391050
Conditions at: KPWM (PORTLAND , ME, US) observed 0451 UTC 17 February 2019
Temperature: -5.0°C (23°F)
Dewpoint: -12.2°C (10°F) [RH = 57%]
Pressure (altimeter): 29.98 inches Hg (1015.3 mb)
[Sea-level pressure: 1015.2 mb]
Winds: from the N (360 degrees) at 6 MPH (5 knots; 2.6 m/s)
Visibility: 10 or more miles (16+ km)
Ceiling: at least 12,000 feet AGL
Clouds: sky clear below 12,000 feet AGL
Weather: no significant weather observed at this time

METAR text: KPWM 170351Z 33008KT 10SM CLR M04/M12 A2995 RMK AO2 SLP143 T10441122
Conditions at: KPWM (PORTLAND , ME, US) observed 0351 UTC 17 February 2019
Temperature: -4.4°C (24°F)
Dewpoint: -12.2°C (10°F) [RH = 54%]
Pressure (altimeter): 29.95 inches Hg (1014.3 mb)
[Sea-level pressure: 1014.3 mb]
Winds: from the NNW (330 degrees) at 9 MPH (8 knots; 4.1 m/s)
Visibility: 10 or more miles (16+ km)
Ceiling: at least 12,000 feet AGL
Clouds: sky clear below 12,000 feet AGL
Weather: no significant weather observed at this time

METAR text: KPWM 170251Z 34007G21KT 10SM CLR M03/M12 A2995 RMK AO2 PRESRR SLP143 T10331117 53033
Conditions at: KPWM (PORTLAND , ME, US) observed 0251 UTC 17 February 2019
Temperature: -3.3°C (26°F)
Dewpoint: -11.7°C (11°F) [RH = 52%]
Pressure (altimeter): 29.95 inches Hg (1014.3 mb)
[Sea-level pressure: 1014.3 mb]
Winds: from the NNW (340 degrees) at 8 MPH (7 knots; 3.6 m/s)
gusting to 24 MPH (21 knots; 10.8 m/s)
Visibility: 10 or more miles (16+ km)
Ceiling: at least 12,000 feet AGL
Clouds: sky clear below 12,000 feet AGL
Weather: no significant weather observed at this time

METAR text: KPWM 170151Z 00000KT 10SM CLR M02/M09 A2991 RMK AO2 SLP129 T10171089
Conditions at: KPWM (PORTLAND , ME, US) observed 0151 UTC 17 February 2019
Temperature: -1.7°C (29°F)
Dewpoint: -8.9°C (16°F) [RH = 58%]
Pressure (altimeter): 29.91 inches Hg (1013.0 mb)
[Sea-level pressure: 1012.9 mb]
Winds: calm
Visibility: 10 or more miles (16+ km)
Ceiling: at least 12,000 feet AGL
Clouds: sky clear below 12,000 feet AGL
Weather: no significant weather observed at this time

METAR text: KPWM 170051Z VRB06KT 10SM CLR M01/M08 A2988 RMK AO2 SLP119 T10061083
Conditions at: KPWM (PORTLAND , ME, US) observed 0051 UTC 17 February 2019
Temperature: -0.6°C (31°F)
Dewpoint: -8.3°C (17°F) [RH = 56%]
Pressure (altimeter): 29.88 inches Hg (1011.9 mb)
[Sea-level pressure: 1011.9 mb]
Winds: variable direction winds at 7 MPH (6 knots; 3.1 m/s)
Visibility: 10 or more miles (16+ km)
Ceiling: at least 12,000 feet AGL
Clouds: sky clear below 12,000 feet AGL
Weather: no significant weather observed at this time

METAR text: KPWM 162351Z 31008KT 10SM CLR 01/M07 A2985 RMK AO2 SLP110 T00061072 10039 20006 53034
Conditions at: KPWM (PORTLAND , ME, US) observed 2351 UTC 16 February 2019
Temperature: 0.6°C (33°F)
Dewpoint: -7.2°C (19°F) [RH = 56%]
Pressure (altimeter): 29.85 inches Hg (1010.9 mb)
[Sea-level pressure: 1011.0 mb]
Winds: from the NW (310 degrees) at 9 MPH (8 knots; 4.1 m/s)
Visibility: 10 or more miles (16+ km)
Ceiling: at least 12,000 feet AGL
Clouds: sky clear below 12,000 feet AGL
Weather: no significant weather observed at this time

METAR text: KPWM 162251Z 32009KT 10SM SCT050 02/M07 A2982 RMK AO2 SLP097 T00171067
Conditions at: KPWM (PORTLAND , ME, US) observed 2251 UTC 16 February 2019
Temperature: 1.7°C (35°F)
Dewpoint: -6.7°C (20°F) [RH = 54%]
Pressure (altimeter): 29.82 inches Hg (1009.9 mb)
[Sea-level pressure: 1009.7 mb]
Winds: from the NW (320 degrees) at 10 MPH (9 knots; 4.6 m/s)
Visibility: 10 or more miles (16+ km)
Ceiling: at least 12,000 feet AGL
Clouds: scattered clouds at 5000 feet AGL
Weather: no significant weather observed at this time

METAR text: KPWM 162151Z 28009KT 10SM OVC050 03/M07 A2978 RMK AO2 SLP084 T00281067
Conditions at: KPWM (PORTLAND , ME, US) observed 2151 UTC 16 February 2019
Temperature: 2.8°C (37°F)
Dewpoint: -6.7°C (20°F) [RH = 50%]
Pressure (altimeter): 29.78 inches Hg (1008.5 mb)
[Sea-level pressure: 1008.4 mb]
Winds: from the W (280 degrees) at 10 MPH (9 knots; 4.6 m/s)
Visibility: 10 or more miles (16+ km)
Ceiling: 5000 feet AGL
Clouds: overcast cloud deck at 5000 feet AGL
Weather: no significant weather observed at this time

Forecast for: KPWM (PORTLAND , ME, US)
Text: KPWM 180528Z 1806/1906 11008KT P6SM SCT020 BKN100
Forecast period: 0600 to 1300 UTC 18 February 2019
Forecast type: FROM: standard forecast or significant change
Winds: from the ESE (110 degrees) at 9 MPH (8 knots; 4.1 m/s)
Visibility: 6 or more miles 10+ km)
Ceiling: 10000 feet AGL
Clouds: scattered clouds at 2000 feet AGL
broken clouds at 10000 feet AGL
Weather: no significant weather forecast for this period
Text: FM181300 03007KT 2SM -SN OVC015
Forecast period: 1300 to 2300 UTC 18 February 2019
Forecast type: FROM: standard forecast or significant change
Winds: from the NNE (30 degrees) at 8 MPH (7 knots; 3.6 m/s)
Visibility: 2.00 miles (3.22 km)
Ceiling: 1500 feet AGL
Clouds: overcast cloud deck at 1500 feet AGL
Weather: -SN  (light snow)
Text: FM182300 36009KT P6SM SCT025 BKN040
Forecast period: 2300 UTC 18 February 2019 to 0300 UTC 19 February 2019
Forecast type: FROM: standard forecast or significant change
Winds: from the N (360 degrees) at 10 MPH (9 knots; 4.6 m/s)
Visibility: 6 or more miles 10+ km)
Ceiling: 4000 feet AGL
Clouds: scattered clouds at 2500 feet AGL
broken clouds at 4000 feet AGL
Weather: no significant weather forecast for this period
Text: FM190300 32008KT P6SM SKC
Forecast period: 0300 to 0600 UTC 19 February 2019
Forecast type: FROM: standard forecast or significant change
Winds: from the NW (320 degrees) at 9 MPH (8 knots; 4.1 m/s)
Visibility: 6 or more miles 10+ km)
Clouds: clear skies
Weather: no significant weather forecast for this period